Time;durP1;ratioP1;P1;durP2;ratioP2;P2;SDS_P1;SDS_P2;PMS_P1;PMS_P2;Temp;Humidity;BMP_temperature;BMP_pressure;BME280_temperature;BME280_humidity;BME280_pressure;Samples;Min_cycle;Max_cycle;Signal;HPM_P1;HPM_P2
2022/12/14 00:01:14;;;;;;;32.40;18.10;;;-1.50;99.90;;;;;;6160891;23;20432;-85
2022/12/14 00:03:40;;;;;;;29.30;16.90;;;-2.90;99.90;;;;;;6179659;23;20115;-85
2022/12/14 00:06:16;;;;;;;31.90;17.42;;;-5.10;99.90;;;;;;6153288;23;20336;-85
2022/12/14 00:08:43;;;;;;;29.90;16.20;;;-1.90;99.90;;;;;;6151855;23;20019;-85
2022/12/14 00:11:15;;;;;;;36.65;16.35;;;-4.00;99.90;;;;;;6177758;23;20028;-85
2022/12/14 00:13:43;;;;;;;33.63;17.52;;;-3.30;99.90;;;;;;6178476;23;20035;-85
2022/12/14 00:16:14;;;;;;;35.42;17.95;;;-3.90;99.90;;;;;;6175626;23;20471;-85
2022/12/14 00:18:41;;;;;;;35.35;17.38;;;-4.20;99.90;;;;;;6152567;23;20024;-85
2022/12/14 00:21:09;;;;;;;32.95;17.20;;;-4.40;99.90;;;;;;6176408;23;20028;-85
2022/12/14 00:23:37;;;;;;;32.22;16.75;;;-4.80;99.90;;;;;;6153138;23;20075;-85
2022/12/14 00:26:27;;;;;;;34.22;16.45;;;-4.90;99.90;;;;;;6153468;23;20027;-86
2022/12/14 00:28:54;;;;;;;32.88;16.40;;;-4.60;99.90;;;;;;6151381;23;20044;-86
2022/12/14 00:31:21;;;;;;;32.30;16.98;;;-4.70;99.90;;;;;;6175712;23;20026;-85
2022/12/14 00:33:51;;;;;;;28.13;16.80;;;-4.30;99.90;;;;;;6152266;23;20025;-84
2022/12/14 00:36:18;;;;;;;30.73;17.33;;;-4.90;99.90;;;;;;6153387;23;20075;-85
2022/12/14 00:38:44;;;;;;;33.92;17.45;;;-4.30;99.90;;;;;;6153033;23;20107;-84
2022/12/14 00:41:11;;;;;;;31.63;16.52;;;-4.40;99.90;;;;;;6176127;23;20028;-84
2022/12/14 00:43:38;;;;;;;31.75;16.75;;;-3.40;99.90;;;;;;6153022;23;20020;-84
2022/12/14 00:46:05;;;;;;;29.05;17.58;;;-6.90;99.90;;;;;;6152654;23;20039;-84
2022/12/14 00:48:31;;;;;;;32.30;16.92;;;-4.20;99.90;;;;;;6151876;23;20110;-84
2022/12/14 00:50:57;;;;;;;29.23;15.38;;;-4.20;99.90;;;;;;6151519;23;20118;-83
2022/12/14 00:53:24;;;;;;;31.60;17.05;;;-4.90;99.90;;;;;;6201657;23;20452;-84
2022/12/14 00:55:50;;;;;;;34.85;16.85;;;;;;;;;;6152956;23;20714;-84
2022/12/14 00:58:19;;;;;;;30.38;16.35;;;-4.40;99.90;;;;;;6151889;23;20039;-84
2022/12/14 01:00:46;;;;;;;30.92;16.88;;;-5.10;99.90;;;;;;6176722;23;20016;-83
2022/12/14 01:03:12;;;;;;;32.38;17.73;;;-5.00;99.90;;;;;;6175917;23;20442;-84
2022/12/14 01:05:38;;;;;;;32.47;16.85;;;-3.60;99.90;;;;;;6152283;23;20067;-84
2022/12/14 01:08:05;;;;;;;30.20;17.25;;;-4.50;99.90;;;;;;6126755;23;20401;-84
2022/12/14 01:10:31;;;;;;;34.42;16.70;;;;;;;;;;6150192;23;20078;-84
2022/12/14 01:12:57;;;;;;;34.30;17.13;;;-5.00;99.90;;;;;;6175658;23;20070;-85
2022/12/14 01:15:23;;;;;;;31.33;15.73;;;;;;;;;;6150528;23;20020;-84
2022/12/14 01:17:51;;;;;;;30.38;15.90;;;-7.10;99.90;;;;;;6200576;23;20028;-84
2022/12/14 01:20:18;;;;;;;33.30;16.85;;;-4.60;99.90;;;;;;6126504;23;20107;-84
2022/12/14 01:22:44;;;;;;;31.88;17.08;;;-3.50;99.90;;;;;;6153239;23;20075;-83
2022/12/14 01:25:10;;;;;;;34.22;16.27;;;-5.10;99.90;;;;;;6134182;23;20020;-84
2022/12/14 01:27:36;;;;;;;29.75;17.02;;;;;;;;;;6162224;23;20024;-83
2022/12/14 01:30:03;;;;;;;30.50;16.67;;;-5.20;99.90;;;;;;6186710;23;20325;-83
2022/12/14 01:32:29;;;;;;;30.00;16.85;;;-5.10;99.90;;;;;;6162038;23;20196;-83
2022/12/14 01:34:55;;;;;;;29.65;15.85;;;-4.80;99.90;;;;;;6158564;23;20387;-84
2022/12/14 01:37:21;;;;;;;32.17;16.77;;;-2.10;99.90;;;;;;6157003;23;20025;-83
2022/12/14 01:39:47;;;;;;;30.48;16.15;;;-4.80;99.90;;;;;;6179410;23;20024;-83
2022/12/14 01:42:14;;;;;;;28.85;16.77;;;-5.30;99.90;;;;;;6203493;23;20024;-85
2022/12/14 01:44:43;;;;;;;27.98;15.75;;;-6.00;99.90;;;;;;6130481;23;20103;-83
2022/12/14 01:47:21;;;;;;;29.35;16.70;;;-2.90;99.90;;;;;;6156883;23;20051;-83
2022/12/14 01:50:00;;;;;;;28.75;15.90;;;-7.50;99.90;;;;;;6173388;23;20029;-83
2022/12/14 01:52:34;;;;;;;27.52;15.65;;;-5.30;99.90;;;;;;6156282;23;20052;-84
2022/12/14 01:55:05;;;;;;;35.35;17.23;;;-5.50;99.90;;;;;;6150235;23;20020;-84
2022/12/14 01:57:45;;;;;;;33.65;16.02;;;-5.40;99.90;;;;;;6154266;23;20025;-84
2022/12/14 02:00:12;;;;;;;33.13;17.42;;;-5.60;99.90;;;;;;6172127;23;20131;-84
2022/12/14 02:02:51;;;;;;;30.40;15.88;;;-4.60;99.90;;;;;;6155948;23;20039;-84
2022/12/14 02:05:19;;;;;;;;;;;-4.90;99.90;;;;;;6151397;23;20017;-83
2022/12/14 02:07:48;;;;;;;30.08;16.25;;;-4.60;99.90;;;;;;6149458;23;19916;-84
2022/12/14 02:10:14;;;;;;;30.65;16.48;;;-5.40;99.90;;;;;;6150593;23;20384;-84
2022/12/14 02:13:03;;;;;;;30.95;16.38;;;-5.30;99.90;;;;;;6176097;23;20016;-84
2022/12/14 02:15:31;;;;;;;29.33;15.95;;;-6.70;99.90;;;;;;6174708;23;20116;-84
2022/12/14 02:17:57;;;;;;;33.92;16.83;;;-5.70;99.90;;;;;;6152590;23;20024;-84
2022/12/14 02:20:29;;;;;;;31.42;16.88;;;-5.40;99.90;;;;;;6127767;23;20020;-84
2022/12/14 02:23:19;;;;;;;30.92;16.85;;;-6.00;99.90;;;;;;6175292;23;20020;-83
2022/12/14 02:26:06;;;;;;;26.00;15.45;;;-5.70;99.90;;;;;;6176239;23;20016;-83
2022/12/14 02:29:12;;;;;;;34.60;16.77;;;-5.70;99.90;;;;;;6151677;23;20025;-83
2022/12/14 02:31:56;;;;;;;30.67;15.85;;;-5.60;99.90;;;;;;6151069;23;20024;-83
2022/12/14 02:35:01;;;;;;;32.55;18.10;;;-5.70;99.90;;;;;;6151260;23;20108;-83
2022/12/14 02:37:45;;;;;;;31.52;17.02;;;-5.70;99.90;;;;;;6113928;23;20094;-83
2022/12/14 02:40:45;;;;;;;30.95;16.67;;;-5.70;99.90;;;;;;6151429;23;20052;-82
2022/12/14 02:43:42;;;;;;;32.90;16.17;;;-5.60;99.90;;;;;;6151741;23;20028;-83
2022/12/14 02:46:29;;;;;;;31.98;18.08;;;-6.80;99.90;;;;;;6177466;23;20028;-83
2022/12/14 02:49:09;;;;;;;30.52;16.15;;;-5.40;99.90;;;;;;6176999;23;20403;-84
2022/12/14 02:51:56;;;;;;;31.73;16.10;;;-5.60;99.90;;;;;;6151251;23;20347;-84
2022/12/14 02:54:36;;;;;;;30.40;15.75;;;-6.80;99.90;;;;;;6149853;23;20025;-84
2022/12/14 02:57:15;;;;;;;30.42;17.02;;;-5.90;99.90;;;;;;6176016;23;20527;-84
2022/12/14 02:59:43;;;;;;;30.27;16.20;;;-4.40;99.90;;;;;;6150372;23;20433;-83
2022/12/14 03:02:11;;;;;;;30.27;16.35;;;-5.10;99.90;;;;;;6151732;23;20029;-84
2022/12/14 03:04:46;;;;;;;37.13;18.90;;;-3.20;99.90;;;;;;6150072;23;20024;-84
2022/12/14 03:07:35;;;;;;;44.95;20.23;;;-5.50;99.90;;;;;;6178121;23;20487;-84
2022/12/14 03:10:39;;;;;;;38.60;19.65;;;-3.10;99.90;;;;;;6150309;23;20448;-84
2022/12/14 03:13:20;;;;;;;37.47;20.13;;;-5.90;99.90;;;;;;6176603;23;20452;-84
2022/12/14 03:16:00;;;;;;;40.38;19.23;;;-5.90;99.90;;;;;;6149675;23;20028;-84
2022/12/14 03:18:31;;;;;;;38.90;18.10;;;-6.00;99.90;;;;;;6149712;23;20022;-84
2022/12/14 03:21:00;;;;;;;38.75;18.13;;;-5.20;99.90;;;;;;6152308;23;20103;-83
2022/12/14 03:23:33;;;;;;;33.47;18.40;;;-6.00;99.90;;;;;;6174953;23;20027;-84
2022/12/14 03:26:25;;;;;;;33.22;19.02;;;-5.80;99.90;;;;;;6151092;23;20103;-84
2022/12/14 03:28:57;;;;;;;36.60;18.70;;;-5.80;99.90;;;;;;6152279;23;20333;-84
2022/12/14 03:31:41;;;;;;;39.13;18.02;;;-5.90;99.90;;;;;;6151609;23;20020;-83
2022/12/14 03:34:12;;;;;;;34.80;18.15;;;-4.10;99.90;;;;;;6199795;23;20012;-83
2022/12/14 03:37:08;;;;;;;34.10;17.33;;;-6.60;99.90;;;;;;6203554;23;20445;-84
2022/12/14 03:39:36;;;;;;;34.80;19.55;;;-5.90;99.90;;;;;;6153038;23;20525;-84
2022/12/14 03:42:21;;;;;;;28.90;16.88;;;-5.70;99.90;;;;;;6152245;23;20023;-83
2022/12/14 03:45:01;;;;;;;31.65;17.20;;;-6.20;99.90;;;;;;6177935;23;20027;-84
2022/12/14 03:48:09;;;;;;;31.48;16.50;;;-5.60;99.90;;;;;;6153420;23;20325;-83
2022/12/14 03:51:14;;;;;;;34.40;16.98;;;-8.20;99.90;;;;;;6160186;23;20020;-83
2022/12/14 03:54:05;;;;;;;32.97;16.00;;;-6.20;99.90;;;;;;6153912;23;20058;-83
2022/12/14 03:56:53;;;;;;;27.73;16.13;;;-3.50;99.90;;;;;;6151159;23;20028;-84
2022/12/14 03:59:41;;;;;;;30.92;15.90;;;-5.10;99.90;;;;;;6154011;23;20057;-83
2022/12/14 04:02:34;;;;;;;27.88;15.23;;;-6.60;99.90;;;;;;6192558;23;20023;-84
2022/12/14 04:05:08;;;;;;;30.08;15.05;;;-7.30;99.90;;;;;;6176905;23;20095;-84
2022/12/14 04:08:00;;;;;;;33.33;16.00;;;-6.40;99.90;;;;;;6149586;23;20119;-84
2022/12/14 04:19:11;;;;;;;31.05;16.55;;;-6.40;99.90;;;;;;6124030;23;20120;-83
2022/12/14 04:22:09;;;;;;;33.40;16.00;;;-6.40;99.90;;;;;;6121703;23;20051;-83
2022/12/14 04:27:42;;;;;;;27.95;15.60;;;-7.30;99.90;;;;;;6145300;23;20032;-83
2022/12/14 04:30:10;;;;;;;28.55;15.00;;;-6.00;99.90;;;;;;6121796;23;20467;-83
2022/12/14 04:32:54;;;;;;;30.42;16.27;;;-6.00;99.90;;;;;;6120337;23;20024;-82
2022/12/14 04:35:28;;;;;;;35.92;17.83;;;-7.10;99.90;;;;;;6144526;23;20067;-83
2022/12/14 04:38:19;;;;;;;35.50;16.88;;;-5.60;99.90;;;;;;6146699;23;20043;-83
2022/12/14 04:41:06;;;;;;;34.85;16.92;;;-5.50;99.90;;;;;;6118918;23;20021;-82
2022/12/14 04:43:37;;;;;;;34.70;16.38;;;-6.80;99.90;;;;;;6120514;23;20113;-83
2022/12/14 04:46:25;;;;;;;37.40;20.75;;;-6.60;99.90;;;;;;6121710;23;20103;-83
2022/12/14 04:49:06;;;;;;;51.28;24.67;;;-4.50;99.90;;;;;;6119569;23;20056;-82
2022/12/14 04:51:59;;;;;;;45.60;23.15;;;-6.60;99.90;;;;;;6119588;23;20021;-83
2022/12/14 04:55:02;;;;;;;38.25;20.70;;;-5.60;99.90;;;;;;6120479;23;20412;-83
2022/12/14 04:58:10;;;;;;;34.80;17.83;;;-6.50;99.90;;;;;;6145565;23;20468;-83
2022/12/14 05:00:44;;;;;;;35.40;18.15;;;-5.70;99.90;;;;;;6119127;23;20326;-83
2022/12/14 05:03:30;;;;;;;36.50;18.15;;;-7.10;99.90;;;;;;6145707;23;20024;-83
2022/12/14 05:06:02;;;;;;;31.23;17.40;;;-6.40;99.90;;;;;;6123411;23;20031;-84
2022/12/14 05:08:58;;;;;;;32.08;17.88;;;-7.50;99.90;;;;;;6120775;23;20864;-83
2022/12/14 05:11:36;;;;;;;36.25;17.05;;;-6.10;99.90;;;;;;6119257;23;20060;-83
2022/12/14 05:14:09;;;;;;;35.38;16.83;;;-6.60;99.90;;;;;;6119475;23;20021;-83
2022/12/14 05:16:35;;;;;;;31.67;16.33;;;;;;;;;;6119474;23;20355;-83
2022/12/14 05:19:07;;;;;;;33.17;17.27;;;-7.80;99.90;;;;;;6145803;23;20036;-83
2022/12/14 05:21:48;;;;;;;37.35;18.08;;;-7.00;99.90;;;;;;6095808;23;20021;-83
2022/12/14 05:24:15;;;;;;;30.08;16.00;;;-6.60;99.90;;;;;;6145522;23;20059;-83
2022/12/14 05:26:41;;;;;;;30.58;16.05;;;-4.60;99.90;;;;;;6121148;23;20020;-83
2022/12/14 05:29:07;;;;;;;32.58;16.92;;;-4.40;99.90;;;;;;6120416;23;20064;-83
2022/12/14 05:31:35;;;;;;;31.90;15.88;;;-9.00;99.90;;;;;;6094217;23;20056;-84
2022/12/14 05:34:00;;;;;;;31.10;15.18;;;-6.60;99.90;;;;;;6120981;23;20044;-83
2022/12/14 05:36:27;;;;;;;32.95;16.90;;;;;;;;;;6146859;23;20453;-82
2022/12/14 05:38:52;;;;;;;30.38;15.30;;;-5.10;99.90;;;;;;6146897;23;20017;-83
2022/12/14 05:41:19;;;;;;;27.23;14.90;;;;;;;;;;6123740;23;20025;-83
2022/12/14 05:43:44;;;;;;;31.27;15.80;;;-7.40;99.90;;;;;;6148199;23;20025;-83
2022/12/14 05:46:11;;;;;;;29.63;16.33;;;;;;;;;;6147713;23;20048;-83
2022/12/14 05:48:39;;;;;;;31.70;15.50;;;-7.50;99.90;;;;;;6146553;23;20183;-82
2022/12/14 05:51:06;;;;;;;27.70;14.75;;;-6.50;99.90;;;;;;6147312;23;20013;-83
2022/12/14 05:53:33;;;;;;;27.48;15.57;;;-5.60;99.90;;;;;;6128757;23;20024;-83
2022/12/14 05:55:59;;;;;;;31.48;15.40;;;-7.00;99.90;;;;;;6150226;23;20028;-82
2022/12/14 05:58:25;;;;;;;29.83;15.95;;;-6.10;99.90;;;;;;6128780;23;20017;-83
2022/12/14 06:00:51;;;;;;;28.45;15.52;;;-6.80;99.90;;;;;;6121740;23;20057;-83
2022/12/14 06:03:17;;;;;;;30.88;15.23;;;-5.20;99.90;;;;;;6098878;23;20332;-83
2022/12/14 06:05:43;;;;;;;27.00;14.95;;;-7.50;99.90;;;;;;6149511;23;20071;-83
2022/12/14 06:08:09;;;;;;;26.70;15.43;;;;;;;;;;6136475;23;20413;-82
2022/12/14 06:10:35;;;;;;;27.52;15.48;;;;;;;;;;6095177;23;20096;-82
2022/12/14 06:13:02;;;;;;;30.00;15.75;;;;;;;;;;6146035;23;20347;-82
2022/12/14 06:15:35;;;;;;;30.52;14.73;;;-4.70;99.90;;;;;;6146355;23;20017;-83
2022/12/14 06:18:04;;;;;;;32.90;16.52;;;;;;;;;;6151768;23;20032;-85
2022/12/14 06:20:39;;;;;;;26.92;13.98;;;-7.00;99.90;;;;;;6155171;23;20086;-85
2022/12/14 06:23:05;;;;;;;28.08;15.23;;;-6.90;99.90;;;;;;6152572;23;20294;-86
2022/12/14 06:25:31;;;;;;;30.13;16.17;;;;;;;;;;6128733;23;20103;-84
2022/12/14 06:27:57;;;;;;;28.50;15.57;;;;;;;;;;6150631;23;20507;-83
2022/12/14 06:30:23;;;;;;;33.90;16.63;;;-6.30;99.90;;;;;;6150250;23;20056;-84
2022/12/14 06:32:49;;;;;;;31.00;16.88;;;;;;;;;;6124562;23;20051;-84
2022/12/14 06:35:21;;;;;;;32.10;16.10;;;-7.30;99.90;;;;;;6150107;23;20017;-84
2022/12/14 06:37:48;;;;;;;28.10;15.20;;;-5.40;99.90;;;;;;6149262;23;20055;-83
2022/12/14 06:40:13;;;;;;;29.08;15.38;;;-6.60;99.90;;;;;;6175934;23;20071;-85
2022/12/14 06:42:39;;;;;;;30.13;15.32;;;-6.10;99.90;;;;;;6151134;23;20016;-85
2022/12/14 06:45:06;;;;;;;30.20;15.32;;;-5.70;99.90;;;;;;6128720;23;20017;-86
2022/12/14 06:47:33;;;;;;;29.80;15.77;;;-5.50;99.90;;;;;;6128412;23;20083;-85
2022/12/14 06:50:00;;;;;;;27.88;15.30;;;;;;;;;;6101750;23;20032;-86
2022/12/14 06:52:26;;;;;;;30.25;15.13;;;-7.40;99.90;;;;;;6151334;23;20468;-86
2022/12/14 06:54:56;;;;;;;29.90;15.77;;;-6.30;99.90;;;;;;6151153;23;20039;-85
2022/12/14 06:57:22;;;;;;;28.63;15.15;;;-9.20;99.90;;;;;;6125981;23;20356;-86
2022/12/14 06:59:48;;;;;;;28.38;14.80;;;-10.00;99.90;;;;;;6150965;23;20517;-86
2022/12/14 07:02:14;;;;;;;36.03;16.48;;;;;;;;;;6127787;23;20020;-85
2022/12/14 07:04:41;;;;;;;32.70;15.98;;;-6.70;99.90;;;;;;6151930;23;20027;-86
2022/12/14 07:07:07;;;;;;;29.77;15.18;;;;;;;;;;6153305;23;20021;-84
2022/12/14 07:09:39;;;;;;;33.10;15.43;;;-7.20;99.90;;;;;;6152685;23;20402;-85
2022/12/14 07:12:05;;;;;;;29.50;15.43;;;;;;;;;;6151603;23;20017;-84
2022/12/14 07:14:31;;;;;;;30.40;15.52;;;-5.10;99.90;;;;;;6152582;23;20063;-82
2022/12/14 07:16:57;;;;;;;29.23;14.60;;;-6.30;99.90;;;;;;6174495;23;20076;-83
2022/12/14 07:19:23;;;;;;;26.27;14.30;;;-7.70;99.90;;;;;;6155627;23;20074;-84
2022/12/14 07:21:49;;;;;;;29.20;14.20;;;-6.50;99.90;;;;;;6129924;23;20422;-80
2022/12/14 07:24:15;;;;;;;32.42;15.00;;;;;;;;;;6156133;23;20020;-85
2022/12/14 07:26:41;;;;;;;26.77;14.27;;;-5.70;99.90;;;;;;6178921;23;20027;-85
2022/12/14 07:29:08;;;;;;;24.85;13.93;;;-8.80;99.90;;;;;;6178877;23;20119;-85
2022/12/14 07:31:34;;;;;;;28.13;14.65;;;;;;;;;;6130300;23;20021;-84
2022/12/14 07:34:00;;;;;;;28.50;14.05;;;-7.00;99.90;;;;;;6155310;23;20131;-85
2022/12/14 07:36:28;;;;;;;28.38;14.23;;;-7.20;99.90;;;;;;6130545;23;20099;-84
2022/12/14 07:39:04;;;;;;;28.35;15.02;;;-8.40;99.90;;;;;;6156340;23;20095;-87
2022/12/14 07:41:33;;;;;;;30.00;15.00;;;;;;;;;;6132739;23;20024;-84
2022/12/14 07:44:00;;;;;;;29.20;14.27;;;-7.90;99.90;;;;;;6158006;23;20083;-84
2022/12/14 07:46:27;;;;;;;31.33;14.82;;;-5.90;99.90;;;;;;6159015;23;20043;-85
2022/12/14 07:48:56;;;;;;;30.27;14.63;;;-7.30;99.90;;;;;;6158660;23;20044;-84
2022/12/14 07:51:37;;;;;;;29.50;14.55;;;-7.20;99.90;;;;;;6184270;23;20121;-85
2022/12/14 07:54:04;;;;;;;26.73;13.93;;;-4.90;99.90;;;;;;6163073;23;20023;-84
2022/12/14 07:56:38;;;;;;;31.67;16.08;;;-6.50;99.90;;;;;;6176623;23;20021;-83
2022/12/14 07:59:07;;;;;;;31.30;15.90;;;-4.50;99.90;;;;;;6168790;23;20024;-84
2022/12/14 08:01:35;;;;;;;31.60;15.63;;;-7.20;99.90;;;;;;6134334;23;20490;-84
2022/12/14 08:04:07;;;;;;;27.55;14.18;;;-5.00;99.90;;;;;;6158119;23;20021;-84
2022/12/14 08:06:33;;;;;;;29.05;15.65;;;-7.20;99.90;;;;;;6200906;23;20440;-85
2022/12/14 08:09:00;;;;;;;35.70;15.93;;;;;;;;;;6163540;23;20056;-84
2022/12/14 08:11:31;;;;;;;31.70;16.40;;;-5.80;99.90;;;;;;6158224;23;20078;-85
2022/12/14 08:14:00;;;;;;;31.42;16.50;;;-7.20;99.90;;;;;;6155972;23;20401;-84
2022/12/14 08:16:26;;;;;;;31.35;15.40;;;-7.10;99.90;;;;;;6151976;23;20400;-85
2022/12/14 08:18:56;;;;;;;31.17;15.82;;;-7.10;99.90;;;;;;6127040;23;20452;-84
2022/12/14 08:21:24;;;;;;;30.73;15.70;;;-7.10;99.90;;;;;;6152818;23;20025;-84
2022/12/14 08:23:56;;;;;;;31.00;15.93;;;-7.50;99.90;;;;;;6176433;23;20028;-84
2022/12/14 08:26:26;;;;;;;27.98;15.73;;;-7.00;99.90;;;;;;6128610;23;20017;-85
2022/12/14 08:28:54;;;;;;;35.70;17.35;;;-6.90;99.90;;;;;;6127568;23;20043;-84
2022/12/14 08:31:22;;;;;;;34.72;17.15;;;-6.10;99.90;;;;;;6152938;23;20095;-84
2022/12/14 08:33:49;;;;;;;44.90;20.77;;;-6.50;99.90;;;;;;6152026;23;20021;-85
2022/12/14 08:36:23;;;;;;;49.08;23.38;;;-7.00;99.90;;;;;;6130574;23;20457;-84
2022/12/14 08:38:56;;;;;;;44.05;23.08;;;-4.20;99.90;;;;;;6127921;23;20027;-85
2022/12/14 08:41:23;;;;;;;51.97;24.40;;;-2.50;99.90;;;;;;6128353;23;20028;-84
2022/12/14 08:43:51;;;;;;;50.67;25.25;;;-2.50;99.90;;;;;;6127984;23;20134;-85
2022/12/14 08:46:18;;;;;;;45.50;23.73;;;0.10;99.90;;;;;;6153426;23;20021;-85
2022/12/14 08:48:43;;;;;;;45.10;21.17;;;-0.80;99.90;;;;;;6128556;23;20021;-85
2022/12/14 08:51:09;;;;;;;32.13;18.40;;;2.00;99.90;;;;;;6128211;23;20017;-85
2022/12/14 08:53:37;;;;;;;26.15;15.52;;;-0.70;99.90;;;;;;6128234;23;20071;-85
2022/12/14 08:56:08;;;;;;;25.35;14.85;;;0.40;99.90;;;;;;6127308;23;20017;-85
2022/12/14 08:58:34;;;;;;;28.05;14.75;;;;;;;;;;6177599;23;20697;-85
2022/12/14 09:01:05;;;;;;;27.75;15.40;;;-2.80;99.90;;;;;;6151808;23;20337;-85
2022/12/14 09:03:31;;;;;;;28.88;16.13;;;-1.80;99.90;;;;;;6151863;23;20368;-85
2022/12/14 09:06:04;;;;;;;29.00;14.93;;;-3.30;99.90;;;;;;6151684;23;20021;-85
2022/12/14 09:08:31;;;;;;;23.90;14.05;;;-1.70;99.90;;;;;;6152633;23;20028;-86
2022/12/14 09:11:00;;;;;;;25.08;13.45;;;-3.60;99.90;;;;;;6128101;23;20449;-85
2022/12/14 09:13:26;;;;;;;25.85;14.02;;;-1.60;99.90;;;;;;6155756;23;20017;-86
2022/12/14 09:15:57;;;;;;;21.83;12.65;;;-4.40;99.90;;;;;;6160804;23;20023;-85
2022/12/14 09:18:23;;;;;;;23.40;12.93;;;-3.20;99.90;;;;;;6189540;23;20051;-85
2022/12/14 09:20:53;;;;;;;23.95;13.63;;;-3.50;99.90;;;;;;6167481;23;20021;-85
2022/12/14 09:23:20;;;;;;;25.15;14.75;;;-4.00;99.90;;;;;;6170903;23;20118;-84
2022/12/14 09:25:46;;;;;;;22.27;13.02;;;-3.80;99.90;;;;;;6169362;23;20020;-85
2022/12/14 09:28:12;;;;;;;22.90;13.43;;;;;;;;;;6141779;23;20032;-85
2022/12/14 09:30:38;;;;;;;26.58;14.35;;;-3.70;99.90;;;;;;6163503;23;20024;-85
2022/12/14 09:33:04;;;;;;;27.65;12.80;;;-1.30;99.90;;;;;;6185927;23;20131;-85
2022/12/14 09:35:29;;;;;;;26.70;14.18;;;-1.60;99.90;;;;;;6160144;23;20019;-84
2022/12/14 09:37:56;;;;;;;28.95;14.80;;;-0.60;99.90;;;;;;6182186;23;20020;-85
2022/12/14 09:40:27;;;;;;;26.15;13.50;;;-2.70;99.90;;;;;;6182046;23;20025;-85
2022/12/14 09:43:06;;;;;;;22.15;12.52;;;-1.00;99.90;;;;;;6181057;23;20023;-85
2022/12/14 09:45:33;;;;;;;22.05;13.45;;;-1.90;99.90;;;;;;6158728;23;20016;-85
2022/12/14 09:48:15;;;;;;;23.10;12.65;;;-1.80;99.90;;;;;;6158041;23;20021;-85
2022/12/14 09:50:44;;;;;;;23.48;13.15;;;-1.70;99.90;;;;;;6158811;23;20032;-85
2022/12/14 09:53:14;;;;;;;25.10;13.13;;;0.70;99.90;;;;;;6178757;23;20013;-85
2022/12/14 09:55:48;;;;;;;22.58;12.95;;;-2.90;99.90;;;;;;6172391;23;20017;-84
2022/12/14 09:58:24;;;;;;;26.73;13.05;;;0.00;99.90;;;;;;6156401;23;20178;-85
2022/12/14 10:01:09;;;;;;;;;;;-0.70;99.90;;;;;;6188588;23;20021;-85
2022/12/14 10:04:26;;;;;;;25.88;14.30;;;0.50;99.90;;;;;;6208069;23;19946;-85
2022/12/14 10:07:22;;;;;;;22.98;12.68;;;2.70;99.90;;;;;;6065213;23;20109;-85
2022/12/14 10:10:07;;;;;;;22.02;12.52;;;3.60;99.90;;;;;;6206666;23;20385;-85
2022/12/14 10:12:37;;;;;;;21.65;13.13;;;3.60;99.90;;;;;;6155391;23;20023;-85
2022/12/14 10:15:18;;;;;;;20.00;11.35;;;2.70;99.90;;;;;;6155006;23;20519;-85
2022/12/14 10:18:07;;;;;;;20.38;11.20;;;2.10;99.90;;;;;;6175319;23;20056;-84
2022/12/14 10:20:47;;;;;;;21.30;11.50;;;3.00;99.90;;;;;;6150387;23;20079;-84
2022/12/14 10:23:16;;;;;;;18.63;10.88;;;2.40;99.90;;;;;;6174389;23;20040;-84
2022/12/14 10:25:45;;;;;;;16.73;10.70;;;4.80;99.90;;;;;;6127017;23;20020;-85
2022/12/14 10:28:19;;;;;;;20.50;11.43;;;5.90;99.90;;;;;;6150034;23;20032;-84
2022/12/14 10:30:47;;;;;;;16.85;10.65;;;5.30;99.90;;;;;;6176259;23;20025;-85
2022/12/14 10:33:23;;;;;;;15.90;10.25;;;6.00;99.90;;;;;;6150633;23;20072;-84
2022/12/14 10:36:00;;;;;;;16.30;9.27;;;5.80;99.90;;;;;;6128181;23;20025;-85
2022/12/14 10:38:41;;;;;;;19.25;12.45;;;6.00;99.90;;;;;;6124339;23;20025;-86
2022/12/14 10:41:23;;;;;;;17.58;9.75;;;7.90;99.90;;;;;;6174091;23;20036;-85
2022/12/14 10:44:07;;;;;;;15.98;9.73;;;7.00;99.90;;;;;;6123496;23;20463;-84
2022/12/14 10:46:45;;;;;;;15.02;9.43;;;7.60;99.90;;;;;;6123617;23;20017;-84
2022/12/14 10:49:19;;;;;;;17.13;10.40;;;7.10;99.90;;;;;;6123141;23;20336;-87
2022/12/14 10:51:55;;;;;;;15.13;8.95;;;6.50;99.90;;;;;;6147008;23;20020;-85
2022/12/14 10:54:44;;;;;;;13.95;9.13;;;5.70;99.90;;;;;;6119384;23;20021;-87
2022/12/14 10:57:29;;;;;;;15.65;9.40;;;5.10;99.90;;;;;;6147306;23;20021;-85
2022/12/14 10:59:55;;;;;;;14.02;8.13;;;4.20;99.90;;;;;;6121532;23;20031;-86
2022/12/14 11:02:22;;;;;;;14.68;8.43;;;3.80;99.90;;;;;;6125415;23;20029;-85
2022/12/14 11:04:57;;;;;;;15.75;8.77;;;5.10;99.90;;;;;;6121424;23;20465;-85
2022/12/14 11:07:50;;;;;;;13.32;7.55;;;2.50;99.90;;;;;;6121199;23;20021;-86
2022/12/14 11:10:19;;;;;;;10.95;6.68;;;2.00;99.90;;;;;;6148246;23;20021;-86
2022/12/14 11:12:57;;;;;;;16.90;7.57;;;1.60;99.90;;;;;;6125545;23;20123;-85
2022/12/14 11:15:27;;;;;;;11.55;7.35;;;0.40;99.90;;;;;;6123773;23;20056;-83
2022/12/14 11:18:01;;;;;;;13.18;7.55;;;2.90;99.90;;;;;;6142135;23;20088;-85
2022/12/14 11:20:27;;;;;;;10.75;6.00;;;;;;;;;;6121907;23;20025;-87
2022/12/14 11:22:55;;;;;;;10.27;6.15;;;0.70;99.90;;;;;;6122223;23;20036;-86
2022/12/14 11:25:31;;;;;;;10.65;6.00;;;0.60;99.90;;;;;;6124771;23;20498;-86
2022/12/14 11:28:13;;;;;;;10.27;6.37;;;0.90;99.90;;;;;;6174966;23;20024;-85
2022/12/14 11:30:39;;;;;;;11.25;6.65;;;0.10;99.90;;;;;;6122582;23;20345;-86
2022/12/14 11:33:05;;;;;;;11.23;6.70;;;1.20;99.90;;;;;;6076171;23;20021;-86
2022/12/14 11:35:31;;;;;;;11.57;7.13;;;2.30;99.90;;;;;;6126742;23;20377;-83
2022/12/14 11:38:00;;;;;;;14.73;8.60;;;1.70;99.90;;;;;;6152007;23;20063;-83
2022/12/14 11:40:27;;;;;;;15.50;8.65;;;1.70;99.90;;;;;;6102724;23;20027;-84
2022/12/14 11:43:01;;;;;;;14.07;8.30;;;0.90;99.90;;;;;;6127707;23;20035;-83
2022/12/14 11:45:32;;;;;;;13.10;8.90;;;-0.20;99.90;;;;;;6127672;23;20013;-84
2022/12/14 11:48:17;;;;;;;16.15;8.98;;;1.70;99.90;;;;;;6127916;23;20021;-84
2022/12/14 11:50:45;;;;;;;13.30;8.18;;;-0.60;99.90;;;;;;6132413;23;20017;-85
2022/12/14 11:53:18;;;;;;;21.13;10.15;;;-0.60;99.90;;;;;;6147425;23;20049;-85
2022/12/14 11:55:57;;;;;;;15.80;8.68;;;0.60;99.90;;;;;;6158383;23;20025;-83
2022/12/14 11:58:47;;;;;;;14.80;8.13;;;0.50;99.90;;;;;;6125211;23;20025;-85
2022/12/14 12:01:17;;;;;;;14.20;8.52;;;-0.70;99.90;;;;;;6152594;23;20021;-85
2022/12/14 12:03:53;;;;;;;14.90;8.73;;;-1.00;99.90;;;;;;6172266;23;20045;-83
2022/12/14 12:06:25;;;;;;;15.40;8.95;;;-2.50;99.90;;;;;;6127385;23;20031;-83
2022/12/14 12:09:02;;;;;;;16.35;8.35;;;-0.40;99.90;;;;;;6101633;23;20028;-83
2022/12/14 12:11:30;;;;;;;15.07;8.35;;;-0.90;99.90;;;;;;6149703;23;20024;-83
2022/12/14 12:14:00;;;;;;;17.48;9.18;;;1.00;99.90;;;;;;6124890;23;20090;-83
2022/12/14 12:16:27;;;;;;;13.75;8.10;;;0.70;99.90;;;;;;6128832;23;20037;-83
2022/12/14 12:19:17;;;;;;;13.25;7.78;;;-1.00;99.90;;;;;;6099820;23;20461;-84
2022/12/14 12:21:43;;;;;;;18.10;8.18;;;-0.90;99.90;;;;;;6147667;23;20091;-85
2022/12/14 12:24:47;;;;;;;18.88;9.60;;;1.30;99.90;;;;;;6121928;23;20032;-80
2022/12/14 12:27:14;;;;;;;15.13;8.45;;;-0.60;99.90;;;;;;6120774;23;20140;-80
2022/12/14 12:29:59;;;;;;;14.20;8.60;;;1.10;99.90;;;;;;6121609;23;20016;-81
2022/12/14 12:32:28;;;;;;;14.05;8.57;;;-0.90;99.90;;;;;;6121492;23;20021;-83
2022/12/14 12:35:13;;;;;;;16.98;9.00;;;-0.90;99.90;;;;;;6122036;23;20435;-84
2022/12/14 12:37:41;;;;;;;14.60;8.40;;;-0.80;99.90;;;;;;6122247;23;20025;-83
2022/12/14 12:40:15;;;;;;;14.00;8.43;;;0.60;99.90;;;;;;6121695;23;20159;-84
2022/12/14 12:43:12;;;;;;;14.88;8.70;;;-0.80;99.90;;;;;;6121802;23;20029;-84
2022/12/14 12:45:53;;;;;;;13.35;8.00;;;-2.20;99.90;;;;;;6121658;23;20024;-84
2022/12/14 12:48:28;;;;;;;14.30;7.70;;;-0.80;99.90;;;;;;6121934;23;20017;-83
2022/12/14 12:50:59;;;;;;;14.75;8.57;;;-0.80;99.90;;;;;;6146583;23;20503;-84
2022/12/14 12:53:36;;;;;;;16.88;8.55;;;0.80;99.90;;;;;;6120636;23;20021;-84
2022/12/14 12:56:13;;;;;;;14.25;8.07;;;0.00;99.90;;;;;;6120981;23;20025;-84
2022/12/14 12:58:39;;;;;;;13.93;8.07;;;1.10;99.90;;;;;;6121735;23;20021;-84
2022/12/14 13:01:29;;;;;;;15.20;8.55;;;-0.60;99.90;;;;;;6123063;23;20020;-84
2022/12/14 13:04:09;;;;;;;14.07;8.00;;;-0.60;99.90;;;;;;6146405;23;20536;-83
2022/12/14 13:07:01;;;;;;;14.82;8.43;;;-0.60;99.90;;;;;;6120446;23;20474;-84
2022/12/14 13:09:48;;;;;;;14.00;8.10;;;-0.50;99.90;;;;;;6145086;23;20344;-83
2022/12/14 13:12:47;;;;;;;15.25;8.00;;;-0.60;99.90;;;;;;6121496;23;20025;-83
2022/12/14 13:15:42;;;;;;;15.90;9.15;;;-0.50;99.90;;;;;;6121385;23;20092;-83
2022/12/14 13:18:21;;;;;;;16.80;8.70;;;-0.50;99.90;;;;;;6149205;23;20112;-84
2022/12/14 13:20:48;;;;;;;12.55;8.45;;;-0.40;99.90;;;;;;6151994;23;20020;-83
2022/12/14 13:23:15;;;;;;;16.50;9.38;;;-0.10;99.90;;;;;;6126249;23;20393;-84
2022/12/14 13:26:08;;;;;;;16.20;8.32;;;1.90;99.90;;;;;;6151721;23;20027;-82